Terminal Aerodrome Forecast
Issued by NWS Pocatello, ID

Home | Current Version | Previous Version | Text Only | Print | Product List | Glossary On
Versions: 1 2 3 4 5 6 7 8 9 10 11 12 13 14 15 16 17 18 19 20 21
000
FTUS45 KPIH 221900 AAA
TAFPIH
TAF AMD
KPIH 221952Z 2220/2318 VRB06KT P6SM -SHRA VCTS SCT025 BKN040CB
      OVC100
     FM230100 18008KT P6SM VCSH FEW015 SCT100
     FM231100 22005KT 3SM BR SCT010
     FM231500 24011KT P6SM FEW020 BKN100=

USA.gov is the U.S. government's official web portal to all federal, state and local government web resources and services.